createdAt,value
2018-06-02T00:00:20.411Z,99.90
2018-06-02T00:02:54.318Z,99.90
2018-06-02T00:05:29.155Z,99.90
2018-06-02T00:08:03.044Z,99.90
2018-06-02T00:10:36.755Z,99.90
2018-06-02T00:13:10.555Z,99.90
2018-06-02T00:15:44.555Z,99.90
2018-06-02T00:18:19.496Z,99.90
2018-06-02T00:20:53.380Z,99.90
2018-06-02T00:23:27.682Z,99.90
2018-06-02T00:26:01.808Z,99.90
2018-06-02T00:28:36.536Z,99.90
2018-06-02T00:31:10.378Z,99.90
2018-06-02T00:33:44.339Z,99.90
2018-06-02T00:36:20.268Z,99.90
2018-06-02T00:38:55.010Z,99.90
2018-06-02T00:41:28.942Z,99.90
2018-06-02T00:44:03.039Z,99.90
2018-06-02T00:46:36.601Z,99.90
2018-06-02T00:49:10.567Z,99.90
2018-06-02T00:51:45.319Z,99.90
2018-06-02T00:54:31.177Z,99.90
2018-06-02T00:57:05.103Z,99.90
2018-06-02T00:59:39.418Z,99.90
2018-06-02T01:02:13.097Z,99.90
2018-06-02T01:04:48.948Z,99.90
2018-06-02T01:07:22.859Z,99.90
2018-06-02T01:09:57.174Z,99.90
2018-06-02T01:12:33.230Z,99.90
2018-06-02T01:15:07.058Z,99.90
2018-06-02T01:17:41.247Z,99.90
2018-06-02T01:20:15.189Z,99.90
2018-06-02T01:22:49.978Z,99.90
2018-06-02T01:25:24.711Z,99.90
2018-06-02T01:27:59.332Z,99.90
2018-06-02T01:30:33.761Z,99.90
2018-06-02T01:33:09.605Z,99.90
2018-06-02T01:35:44.038Z,99.90
2018-06-02T01:38:18.771Z,99.90
2018-06-02T01:40:52.675Z,99.90
2018-06-02T01:43:27.583Z,99.90
2018-06-02T01:46:01.801Z,99.90
2018-06-02T01:48:35.597Z,99.90
2018-06-02T01:51:09.631Z,99.90
2018-06-02T01:53:43.335Z,99.90
2018-06-02T01:56:19.889Z,99.90
2018-06-02T01:58:53.609Z,99.90
2018-06-02T02:01:27.382Z,99.90
2018-06-02T02:04:00.917Z,99.90
2018-06-02T02:06:34.586Z,99.90
2018-06-02T02:09:08.904Z,99.90
2018-06-02T02:11:42.679Z,99.90
2018-06-02T02:14:17.539Z,99.90
2018-06-02T02:16:51.861Z,99.90
2018-06-02T02:19:25.901Z,99.90
2018-06-02T02:22:00.174Z,99.90
2018-06-02T02:24:34.466Z,99.90
2018-06-02T02:27:09.432Z,99.90
2018-06-02T02:29:43.982Z,99.90
2018-06-02T02:32:17.938Z,99.90
2018-06-02T02:34:51.663Z,99.90
2018-06-02T02:37:25.991Z,99.90
2018-06-02T02:40:00.096Z,99.90
2018-06-02T02:42:33.846Z,99.90
2018-06-02T02:45:08.307Z,99.90
2018-06-02T02:47:41.913Z,99.90
2018-06-02T02:50:16.891Z,99.90
2018-06-02T02:52:51.370Z,99.90
2018-06-02T02:55:26.019Z,99.90
2018-06-02T02:58:01.019Z,99.90
2018-06-02T03:00:34.811Z,99.90
2018-06-02T03:03:09.538Z,99.90
2018-06-02T03:05:43.878Z,99.90
2018-06-02T03:08:21.270Z,99.90
2018-06-02T03:10:54.975Z,99.90
2018-06-02T03:13:29.871Z,99.90
2018-06-02T03:16:03.692Z,99.90
2018-06-02T03:18:37.696Z,99.90
2018-06-02T03:21:11.389Z,99.90
2018-06-02T03:23:45.114Z,99.90
2018-06-02T03:26:20.203Z,99.90
2018-06-02T03:28:54.770Z,99.90
2018-06-02T03:31:29.399Z,99.90
2018-06-02T03:34:03.182Z,99.90
2018-06-02T03:36:38.030Z,99.90
2018-06-02T03:39:12.150Z,99.90
2018-06-02T03:41:46.570Z,99.90
2018-06-02T03:44:20.459Z,99.90
2018-06-02T03:46:54.274Z,99.90
2018-06-02T03:49:27.959Z,99.90
2018-06-02T03:52:03.510Z,99.90
2018-06-02T03:54:37.847Z,99.90
2018-06-02T03:57:12.828Z,99.90
2018-06-02T03:59:46.579Z,99.90
2018-06-02T04:02:21.427Z,99.90
2018-06-02T04:04:55.088Z,99.90
2018-06-02T04:07:30.118Z,99.90
2018-06-02T04:10:03.830Z,99.90
2018-06-02T04:12:37.936Z,99.90
2018-06-02T04:15:11.738Z,99.90
2018-06-02T04:17:45.335Z,99.90
2018-06-02T04:20:19.787Z,99.90
2018-06-02T04:22:53.764Z,99.90
2018-06-02T04:25:28.822Z,99.90
2018-06-02T04:28:04.851Z,99.90
2018-06-02T04:30:39.172Z,99.90
2018-06-02T04:33:13.141Z,99.90
2018-06-02T04:35:47.707Z,99.90
2018-06-02T04:38:23.073Z,99.90
2018-06-02T04:40:57.585Z,99.90
2018-06-02T04:43:31.692Z,99.90
2018-06-02T04:46:06.106Z,99.90
2018-06-02T04:48:41.050Z,99.90
2018-06-02T04:51:14.825Z,99.90
2018-06-02T04:53:49.164Z,99.90
2018-06-02T04:56:23.159Z,99.90
2018-06-02T04:58:57.780Z,99.90
2018-06-02T05:01:31.811Z,99.90
2018-06-02T05:04:05.379Z,99.90
2018-06-02T05:06:40.021Z,99.90
2018-06-02T05:09:13.849Z,99.90
2018-06-02T05:11:47.726Z,99.90
2018-06-02T05:14:21.453Z,99.90
2018-06-02T05:16:55.433Z,99.90
2018-06-02T05:19:29.644Z,99.90
2018-06-02T05:22:04.187Z,99.90
2018-06-02T05:24:38.803Z,99.90
2018-06-02T05:27:13.521Z,99.90
2018-06-02T05:29:47.651Z,99.90
2018-06-02T05:32:22.172Z,99.90
2018-06-02T05:34:56.379Z,99.90
2018-06-02T05:37:30.291Z,99.90
2018-06-02T05:40:03.984Z,99.90
2018-06-02T05:42:38.495Z,99.90
2018-06-02T05:45:13.242Z,99.90
2018-06-02T05:47:47.845Z,99.90
2018-06-02T05:50:21.824Z,99.90
2018-06-02T05:52:55.474Z,99.90
2018-06-02T05:55:29.590Z,99.90
2018-06-02T05:58:03.602Z,99.90
2018-06-02T06:00:37.270Z,99.90
2018-06-02T06:03:11.701Z,99.90
2018-06-02T06:05:45.910Z,99.90
2018-06-02T06:08:20.217Z,99.90
2018-06-02T06:10:55.056Z,99.90
2018-06-02T06:13:29.025Z,99.90
2018-06-02T06:16:02.669Z,99.90
2018-06-02T06:18:37.308Z,99.90
2018-06-02T06:21:13.367Z,99.90
2018-06-02T06:23:47.970Z,99.90
2018-06-02T06:26:21.986Z,99.90
2018-06-02T06:28:56.672Z,99.90
2018-06-02T06:31:31.198Z,99.90
2018-06-02T06:34:05.739Z,99.90
2018-06-02T06:36:39.859Z,99.90
2018-06-02T06:39:13.860Z,99.90
2018-06-02T06:41:48.724Z,99.90
2018-06-02T06:44:22.703Z,99.90
2018-06-02T06:46:56.351Z,99.90
2018-06-02T06:49:30.439Z,99.90
2018-06-02T06:52:04.733Z,99.90
2018-06-02T06:54:39.450Z,99.90
2018-06-02T06:57:13.381Z,99.90
2018-06-02T06:59:46.983Z,99.90
2018-06-02T07:02:21.989Z,99.90
2018-06-02T07:04:55.904Z,99.90
2018-06-02T07:07:30.294Z,99.90
2018-06-02T07:10:04.724Z,99.90
2018-06-02T07:12:38.307Z,99.90
2018-06-02T07:15:12.034Z,99.90
2018-06-02T07:17:45.703Z,99.90
2018-06-02T07:20:19.366Z,99.90
2018-06-02T07:22:53.872Z,99.90
2018-06-02T07:25:27.630Z,99.90
2018-06-02T07:28:01.573Z,99.90
2018-06-02T07:30:35.094Z,99.90
2018-06-02T07:33:08.875Z,99.90
2018-06-02T07:35:42.616Z,99.90
2018-06-02T07:38:16.384Z,99.90
2018-06-02T07:40:51.396Z,99.90
2018-06-02T07:43:25.235Z,99.90
2018-06-02T07:45:58.918Z,99.90
2018-06-02T07:48:32.526Z,99.90
2018-06-02T07:51:07.088Z,99.90
2018-06-02T07:53:41.483Z,99.90
2018-06-02T07:56:15.268Z,99.90
2018-06-02T07:58:49.219Z,99.90
2018-06-02T08:01:22.788Z,99.90
2018-06-02T08:03:57.499Z,99.90
2018-06-02T08:06:32.730Z,99.90
2018-06-02T08:09:06.979Z,99.90
2018-06-02T08:11:40.570Z,99.90
2018-06-02T08:14:15.068Z,99.90
2018-06-02T08:16:49.106Z,99.90
2018-06-02T08:19:23.220Z,99.90
2018-06-02T08:21:57.519Z,99.90
2018-06-02T08:24:32.049Z,99.90
2018-06-02T08:27:06.687Z,99.90
2018-06-02T08:29:40.704Z,99.90
2018-06-02T08:32:15.076Z,99.90
2018-06-02T08:34:49.612Z,99.90
2018-06-02T08:37:24.427Z,99.90
2018-06-02T08:39:59.070Z,99.90
2018-06-02T08:42:33.350Z,99.90
2018-06-02T08:45:07.810Z,99.90
2018-06-02T08:47:42.411Z,99.90
2018-06-02T08:50:18.394Z,99.90
2018-06-02T08:52:52.787Z,99.90
2018-06-02T08:55:27.399Z,99.90
2018-06-02T08:58:02.262Z,99.90
2018-06-02T09:00:36.841Z,99.90
2018-06-02T09:03:10.475Z,99.90
2018-06-02T09:05:44.371Z,99.90
2018-06-02T09:08:18.580Z,99.90
2018-06-02T09:10:52.917Z,99.90
2018-06-02T09:13:26.796Z,99.90
2018-06-02T09:16:01.747Z,99.90
2018-06-02T09:18:35.228Z,99.90
2018-06-02T09:21:08.934Z,99.90
2018-06-02T09:23:43.299Z,99.90
2018-06-02T09:26:17.074Z,99.90
2018-06-02T09:28:51.694Z,99.90
2018-06-02T09:31:25.485Z,99.90
2018-06-02T09:34:00.534Z,99.90
2018-06-02T09:36:34.851Z,99.90
2018-06-02T09:39:08.748Z,99.90
2018-06-02T09:41:43.171Z,99.90
2018-06-02T09:44:17.067Z,99.90
2018-06-02T09:46:51.478Z,99.90
2018-06-02T09:49:25.823Z,99.90
2018-06-02T09:51:59.576Z,99.90
2018-06-02T09:54:34.059Z,99.90
2018-06-02T09:57:08.540Z,99.90
2018-06-02T09:59:42.258Z,99.90
2018-06-02T10:02:16.834Z,99.90
2018-06-02T10:04:50.876Z,99.90
2018-06-02T10:07:25.391Z,99.90
2018-06-02T10:10:00.149Z,99.90
2018-06-02T10:12:34.566Z,99.90
2018-06-02T10:15:08.350Z,99.90
2018-06-02T10:17:42.971Z,99.90
2018-06-02T10:20:16.771Z,99.90
2018-06-02T10:22:51.598Z,99.90
2018-06-02T10:25:26.037Z,99.90
2018-06-02T10:28:01.775Z,99.90
2018-06-02T10:30:35.599Z,99.90
2018-06-02T10:33:11.346Z,99.90
2018-06-02T10:35:46.157Z,99.90
2018-06-02T10:38:20.268Z,99.90
2018-06-02T10:40:53.971Z,99.90
2018-06-02T10:43:27.945Z,99.90
2018-06-02T10:46:02.612Z,99.90
2018-06-02T10:48:36.407Z,99.90
2018-06-02T10:51:13.952Z,99.90
2018-06-02T10:53:47.796Z,99.90
2018-06-02T10:56:22.632Z,99.90
2018-06-02T10:58:56.231Z,99.90
2018-06-02T11:01:31.287Z,99.90
2018-06-02T11:04:04.942Z,99.90
2018-06-02T11:06:39.084Z,99.90
2018-06-02T11:09:13.282Z,99.90
2018-06-02T11:11:47.102Z,99.90
2018-06-02T11:14:21.107Z,99.90
2018-06-02T11:16:54.694Z,99.90
2018-06-02T11:19:28.649Z,99.90
2018-06-02T11:22:03.153Z,99.90
2018-06-02T11:24:36.930Z,99.90
2018-06-02T11:27:10.731Z,99.90
2018-06-02T11:29:44.476Z,99.90
2018-06-02T11:32:19.907Z,99.90
2018-06-02T11:34:54.679Z,99.90
2018-06-02T11:37:28.519Z,99.90
2018-06-02T11:40:02.691Z,99.90
2018-06-02T11:42:36.962Z,99.90
2018-06-02T11:45:10.955Z,99.90
2018-06-02T11:47:45.366Z,99.90
2018-06-02T11:50:19.849Z,99.90
2018-06-02T11:52:54.503Z,99.90
2018-06-02T11:55:28.427Z,99.90
2018-06-02T11:58:03.349Z,99.90
2018-06-02T12:00:37.768Z,99.90
2018-06-02T12:03:12.913Z,99.90
2018-06-02T12:05:46.818Z,99.90
2018-06-02T12:08:20.744Z,99.90
2018-06-02T12:10:54.443Z,97.50
2018-06-02T12:13:28.454Z,99.90
2018-06-02T12:16:03.798Z,99.90
2018-06-02T12:18:38.075Z,99.90
2018-06-02T12:21:16.593Z,95.00
2018-06-02T12:23:53.248Z,96.70
2018-06-02T12:26:27.718Z,98.80
2018-06-02T12:29:01.569Z,98.80
2018-06-02T12:31:36.562Z,99.90
2018-06-02T12:34:11.157Z,99.90
2018-06-02T12:36:44.773Z,99.90
2018-06-02T12:39:19.604Z,99.40
2018-06-02T12:41:54.226Z,99.90
2018-06-02T12:44:28.220Z,99.90
2018-06-02T12:47:02.349Z,99.90
2018-06-02T12:49:36.459Z,96.60
2018-06-02T12:52:11.851Z,96.20
2018-06-02T12:54:46.685Z,95.90
2018-06-02T12:57:21.133Z,96.00
2018-06-02T12:59:55.077Z,95.90
2018-06-02T13:02:30.222Z,95.90
2018-06-02T13:05:04.385Z,95.90
2018-06-02T13:07:39.336Z,89.60
2018-06-02T13:10:13.320Z,89.50
2018-06-02T13:12:47.973Z,92.70
2018-06-02T13:15:22.697Z,96.60
2018-06-02T13:17:56.577Z,91.10
2018-06-02T13:20:31.503Z,92.10
2018-06-02T13:23:05.516Z,92.00
2018-06-02T13:25:40.253Z,90.60
2018-06-02T13:28:14.769Z,89.60
2018-06-02T13:30:50.403Z,95.40
2018-06-02T13:33:25.659Z,92.30
2018-06-02T13:35:59.471Z,92.20
2018-06-02T13:38:33.872Z,89.10
2018-06-02T13:41:07.632Z,89.10
2018-06-02T13:43:42.801Z,85.50
2018-06-02T13:46:17.128Z,85.30
2018-06-02T13:48:52.159Z,83.50
2018-06-02T13:51:25.898Z,83.50
2018-06-02T13:54:00.778Z,77.80
2018-06-02T13:56:34.310Z,77.50
2018-06-02T13:59:08.835Z,71.50
2018-06-02T14:01:43.442Z,71.40
2018-06-02T14:04:17.863Z,63.50
2018-06-02T14:06:54.411Z,60.20
2018-06-02T14:09:30.892Z,60.20
2018-06-02T14:12:04.601Z,63.10
2018-06-02T14:14:38.431Z,59.80
2018-06-02T14:17:12.957Z,63.90
2018-06-02T14:19:47.508Z,64.80
2018-06-02T14:22:22.282Z,63.80
2018-06-02T14:24:55.967Z,63.70
2018-06-02T14:27:30.196Z,60.60
2018-06-02T14:30:04.056Z,67.40
2018-06-02T14:32:40.437Z,73.90
2018-06-02T14:35:15.208Z,78.90
2018-06-02T14:37:49.388Z,78.90
2018-06-02T14:40:24.120Z,75.20
2018-06-02T14:42:57.848Z,75.00
2018-06-02T14:45:33.183Z,66.40
2018-06-02T14:48:07.673Z,66.60
2018-06-02T14:50:41.927Z,61.50
2018-06-02T14:53:16.611Z,59.00
2018-06-02T14:55:52.170Z,58.10
2018-06-02T14:58:26.579Z,59.10
2018-06-02T15:01:01.789Z,66.70
2018-06-02T15:03:36.903Z,67.30
2018-06-02T15:06:10.912Z,67.30
2018-06-02T15:08:45.667Z,78.20
2018-06-02T15:11:20.656Z,76.10
2018-06-02T15:13:54.523Z,76.00
2018-06-02T15:16:29.184Z,77.90
2018-06-02T15:19:03.752Z,77.80
2018-06-02T15:21:38.198Z,82.90
2018-06-02T15:24:12.961Z,82.90
2018-06-02T15:26:47.209Z,83.90
2018-06-02T15:29:22.885Z,82.00
2018-06-02T15:31:56.845Z,81.80
2018-06-02T15:34:31.620Z,79.20
2018-06-02T15:37:06.014Z,83.10
2018-06-02T15:39:39.955Z,83.10
2018-06-02T15:42:14.224Z,85.50
2018-06-02T15:44:48.995Z,87.50
2018-06-02T15:47:27.983Z,90.80
2018-06-02T15:50:01.796Z,91.20
2018-06-02T15:52:35.531Z,92.40
2018-06-02T15:55:09.211Z,91.50
2018-06-02T15:57:43.101Z,87.90
2018-06-02T16:00:19.232Z,84.20
2018-06-02T16:02:52.940Z,84.30
2018-06-02T16:05:27.530Z,87.90
2018-06-02T16:08:01.127Z,87.90
2018-06-02T16:10:36.258Z,83.00
2018-06-02T16:13:10.722Z,84.40
2018-06-02T16:15:45.309Z,89.40
2018-06-02T16:18:19.945Z,89.80
2018-06-02T16:20:54.006Z,89.70
2018-06-02T16:23:28.573Z,92.20
2018-06-02T16:26:03.042Z,92.20
2018-06-02T16:28:38.236Z,92.20
2018-06-02T16:31:12.652Z,92.10
2018-06-02T16:33:47.579Z,93.40
2018-06-02T16:36:21.241Z,93.40
2018-06-02T16:38:55.066Z,94.20
2018-06-02T16:41:29.774Z,94.90
2018-06-02T16:44:03.762Z,94.90
2018-06-02T16:46:39.080Z,95.80
2018-06-02T16:49:14.063Z,97.00
2018-06-02T16:51:48.131Z,97.00
2018-06-02T16:54:22.812Z,96.70
2018-06-02T16:56:56.492Z,96.60
2018-06-02T16:59:30.910Z,94.40
2018-06-02T17:02:05.447Z,92.40
2018-06-02T17:04:40.827Z,94.20
2018-06-02T17:07:15.443Z,93.70
2018-06-02T17:09:50.121Z,92.70
2018-06-02T17:12:24.665Z,93.50
2018-06-02T17:14:59.195Z,93.50
2018-06-02T17:17:32.877Z,94.40
2018-06-02T17:20:06.954Z,95.30
2018-06-02T17:22:40.978Z,96.70
2018-06-02T17:25:15.424Z,96.20
2018-06-02T17:27:49.994Z,97.80
2018-06-02T17:30:23.593Z,97.80
2018-06-02T17:32:57.085Z,97.50
2018-06-02T17:35:35.218Z,99.10
2018-06-02T17:38:09.760Z,98.90
2018-06-02T17:40:44.143Z,99.10
2018-06-02T17:43:17.781Z,99.20
2018-06-02T17:45:51.317Z,99.80
2018-06-02T17:48:25.869Z,99.90
2018-06-02T17:51:00.399Z,99.90
2018-06-02T17:53:34.204Z,99.90
2018-06-02T17:56:07.804Z,99.90
2018-06-02T17:58:41.466Z,99.90
2018-06-02T18:01:15.937Z,99.90
2018-06-02T18:03:49.752Z,99.90
2018-06-02T18:06:23.533Z,99.90
2018-06-02T18:08:57.638Z,99.90
2018-06-02T18:11:32.759Z,99.90
2018-06-02T18:14:06.610Z,99.90
2018-06-02T18:16:40.410Z,99.90
2018-06-02T18:19:14.109Z,99.90
2018-06-02T18:21:48.595Z,99.90
2018-06-02T18:24:23.289Z,99.90
2018-06-02T18:26:57.584Z,99.90
2018-06-02T18:29:31.230Z,99.90
2018-06-02T18:32:07.416Z,99.90
2018-06-02T18:34:41.275Z,99.90
2018-06-02T18:37:15.134Z,99.90
2018-06-02T18:39:49.962Z,99.90
2018-06-02T18:42:24.513Z,99.90
2018-06-02T18:44:58.195Z,99.90
2018-06-02T18:47:31.844Z,99.90
2018-06-02T18:50:06.536Z,99.90
2018-06-02T18:52:41.471Z,99.90
2018-06-02T18:55:16.302Z,99.90
2018-06-02T18:57:50.097Z,99.90
2018-06-02T19:00:23.883Z,99.90
2018-06-02T19:02:57.421Z,99.90
2018-06-02T19:05:30.994Z,99.90
2018-06-02T19:08:05.783Z,99.90
2018-06-02T19:10:40.272Z,99.90
2018-06-02T19:13:13.770Z,99.90
2018-06-02T19:15:47.373Z,99.90
2018-06-02T19:18:21.239Z,99.90
2018-06-02T19:20:55.604Z,99.90
2018-06-02T19:23:29.293Z,99.90
2018-06-02T19:26:06.609Z,99.90
2018-06-02T19:28:40.115Z,99.90
2018-06-02T19:31:16.504Z,99.90
2018-06-02T19:33:51.386Z,99.90
2018-06-02T19:36:24.838Z,99.90
2018-06-02T19:38:59.499Z,99.90
2018-06-02T19:41:33.098Z,99.90
2018-06-02T19:44:06.642Z,99.90
2018-06-02T19:46:40.397Z,99.90
2018-06-02T19:49:14.400Z,99.90
2018-06-02T19:51:48.000Z,99.90
2018-06-02T19:54:21.787Z,99.90
2018-06-02T19:56:56.354Z,99.90
2018-06-02T19:59:33.261Z,99.90
2018-06-02T20:02:06.879Z,99.90
2018-06-02T20:04:40.813Z,99.90
2018-06-02T20:07:14.294Z,99.90
2018-06-02T20:09:48.653Z,99.90
2018-06-02T20:12:25.277Z,99.90
2018-06-02T20:14:58.839Z,99.90
2018-06-02T20:17:32.514Z,99.90
2018-06-02T20:20:06.253Z,99.90
2018-06-02T20:22:40.603Z,99.90
2018-06-02T20:25:15.122Z,99.90
2018-06-02T20:27:49.450Z,99.90
2018-06-02T20:30:23.227Z,99.90
2018-06-02T20:32:56.973Z,99.90
2018-06-02T20:35:30.764Z,99.90
2018-06-02T20:38:04.383Z,99.90
2018-06-02T20:40:38.997Z,99.90
2018-06-02T20:43:13.293Z,99.90
2018-06-02T20:48:45.106Z,99.90
2018-06-02T20:51:18.806Z,99.90
2018-06-02T20:53:53.290Z,99.90
2018-06-02T20:56:27.426Z,99.90
2018-06-02T20:59:01.010Z,99.90
2018-06-02T21:01:35.514Z,99.90
2018-06-02T21:04:09.138Z,99.90
2018-06-02T21:06:43.054Z,99.90
2018-06-02T21:09:16.751Z,99.90
2018-06-02T21:11:50.362Z,99.90
2018-06-02T21:14:23.934Z,99.90
2018-06-02T21:17:04.126Z,99.90
2018-06-02T21:19:38.151Z,99.90
2018-06-02T21:22:11.873Z,99.90
2018-06-02T21:24:46.218Z,99.90
2018-06-02T21:27:19.786Z,99.90
2018-06-02T21:29:53.831Z,99.90
2018-06-02T21:32:27.454Z,99.90
2018-06-02T21:35:01.027Z,99.90
2018-06-02T21:37:34.641Z,99.90
2018-06-02T21:40:08.894Z,99.90
2018-06-02T21:42:42.537Z,99.90
2018-06-02T21:45:16.271Z,99.90
2018-06-02T21:47:49.882Z,99.90
2018-06-02T21:50:23.448Z,99.90
2018-06-02T21:52:57.034Z,99.90
2018-06-02T21:55:31.690Z,99.90
2018-06-02T21:58:05.263Z,99.90
2018-06-02T22:00:39.210Z,99.90
2018-06-02T22:03:12.779Z,99.90
2018-06-02T22:05:46.496Z,99.90
2018-06-02T22:08:20.057Z,99.90
2018-06-02T22:10:54.714Z,99.90
2018-06-02T22:13:28.438Z,99.90
2018-06-02T22:16:03.314Z,99.90
2018-06-02T22:18:37.923Z,99.90
2018-06-02T22:21:11.503Z,99.90
2018-06-02T22:23:45.115Z,99.90
2018-06-02T22:26:18.631Z,99.90
2018-06-02T22:28:52.410Z,99.90
2018-06-02T22:31:26.170Z,99.90
2018-06-02T22:33:59.999Z,99.90
2018-06-02T22:36:35.330Z,99.90
2018-06-02T22:39:09.098Z,99.90
2018-06-02T22:41:42.931Z,99.90
2018-06-02T22:46:55.928Z,99.90
2018-06-02T22:49:35.550Z,99.90
2018-06-02T22:52:09.145Z,99.90
2018-06-02T22:54:42.812Z,99.90
2018-06-02T22:57:16.437Z,99.90
2018-06-02T22:59:50.191Z,99.90
2018-06-02T23:02:24.698Z,99.90
2018-06-02T23:04:59.043Z,99.90
2018-06-02T23:07:33.496Z,99.90
2018-06-02T23:10:08.968Z,99.90
2018-06-02T23:12:42.507Z,99.90
2018-06-02T23:15:17.007Z,99.90
2018-06-02T23:17:50.643Z,99.90
2018-06-02T23:20:25.866Z,99.90
2018-06-02T23:22:59.394Z,99.90
2018-06-02T23:25:33.063Z,99.90
2018-06-02T23:28:06.671Z,99.90
2018-06-02T23:30:40.166Z,99.90
2018-06-02T23:33:13.738Z,99.90
2018-06-02T23:35:47.671Z,99.90
2018-06-02T23:38:22.238Z,99.90
2018-06-02T23:40:55.806Z,99.90
2018-06-02T23:43:29.600Z,99.90
2018-06-02T23:46:03.312Z,99.90
2018-06-02T23:48:36.830Z,99.90
2018-06-02T23:51:10.436Z,99.90
2018-06-02T23:53:44.070Z,99.90
2018-06-02T23:56:17.694Z,99.90
2018-06-02T23:58:51.222Z,99.90
